Aeroporto :
LOGIN :

Iscrizione | Disclaimer

   EN    FR    IT 

 










Sommario :    VFR   VFR Marginale   IFR   IFR Intensivo   IFR Molto Intensivo
Visibilità : 
Base nubi : 
>= 8 km
>= 3000ft
5 / 8 km
1000 / 3000 ft
1500m / 5 km
500 / 1000 ft
800 / 1500m
200 / 500 ft
< 800m
< 200 ft
Simboli :   Temporali  Nebbia  Neve Forte  Precipitazioni Forti  Vento > 20 kt
SIGMETs :   Varie  Temporali  Ghiacco  Turbolenza  Onda orograficha  Ceneri Vulcaniche







- Altitudine del aeroporto : 656 ft
- Codice IATA : CMN


GMMN - Casablanca Mohammed V

ULTIMO METAR :
  • 230430Z VRB02KT 9999 BKN003 21/21 Q1015 BECMG 4000 BR

METARs OBSOLETI :
  • 230400Z 27003KT 230V320 9999 BKN003 21/21 Q1015 BECMG 4000 BR
  • 230330Z 00000KT 9999 BKN003 BKN016 21/21 Q1015 BECMG 4000 BR
  • 230300Z /////KT 9999 BKN003 BKN016 21/21 Q1015 BECMG 4000 BR
  • 230230Z 30005KT 9999 SCT003 BKN016 21/21 Q1015 BECMG 4000 BR
  • 230200Z 30005KT 9000 SCT003 BKN016 21/21 Q1016 BECMG 4000 BR

TAF TAF GMMN
Valido dal 23 a 00 ore il 24 a 06 ore UTC


222300Z 2300/2406 28004KT 8000 SCT010
PROB30
TEMPO 2302/2306 4000 BR BKN006
BECMG 2309/2312 34012KT CAVOK
BECMG 2220/2224 28004KT 8000 SCT016
Nessun NOTAM noto per questo aeroporto.



MetMap, La meteo Aeronautica in un colpo d'occhio ! - Copyright ORBIFLY Dicembre 2007 - Disclaimer

ORBIFLY MET'MAP TEAM :

Programmazione e sviluppo : Alexandra Zaïnal
Concezione e sviluppo : Baudouin d'Aumeries
Co-Programmazione e sviluppo : Marc-Olivier Méhu
Supporto tecnico e logistico : Manuel Goepfert
Aiuto per la traduzione : Arnaldo La Scala

Contatto : metmap@orbifly.com




FONTI E CREDITI :

   NOAA